sensor_id;sensor_type;location;lat;lon;timestamp;P1;durP1;ratioP1;P2;durP2;ratioP2
26261;SDS011;13988;52.446;13.280;2024-02-14T00:01:55;8.23;;;3.78;;
26261;SDS011;13988;52.446;13.280;2024-02-14T00:04:20;4.10;;;2.65;;
26261;SDS011;13988;52.446;13.280;2024-02-14T00:06:46;6.90;;;3.58;;
26261;SDS011;13988;52.446;13.280;2024-02-14T00:09:12;6.50;;;3.05;;
26261;SDS011;13988;52.446;13.280;2024-02-14T00:11:38;7.65;;;3.78;;
26261;SDS011;13988;52.446;13.280;2024-02-14T00:14:03;8.75;;;3.60;;
26261;SDS011;13988;52.446;13.280;2024-02-14T00:16:29;6.50;;;3.65;;
26261;SDS011;13988;52.446;13.280;2024-02-14T00:18:55;5.82;;;3.33;;
26261;SDS011;13988;52.446;13.280;2024-02-14T00:21:22;6.95;;;3.45;;
26261;SDS011;13988;52.446;13.280;2024-02-14T00:23:49;5.35;;;3.20;;
26261;SDS011;13988;52.446;13.280;2024-02-14T00:26:15;5.00;;;2.65;;
26261;SDS011;13988;52.446;13.280;2024-02-14T00:28:40;3.45;;;2.70;;
26261;SDS011;13988;52.446;13.280;2024-02-14T00:31:06;4.63;;;3.35;;
26261;SDS011;13988;52.446;13.280;2024-02-14T00:33:31;4.95;;;3.45;;
26261;SDS011;13988;52.446;13.280;2024-02-14T00:35:57;7.78;;;3.05;;
26261;SDS011;13988;52.446;13.280;2024-02-14T00:38:23;3.88;;;2.70;;
26261;SDS011;13988;52.446;13.280;2024-02-14T00:40:48;7.97;;;3.17;;
26261;SDS011;13988;52.446;13.280;2024-02-14T00:43:14;4.25;;;2.67;;
26261;SDS011;13988;52.446;13.280;2024-02-14T00:45:39;3.72;;;2.95;;
26261;SDS011;13988;52.446;13.280;2024-02-14T00:48:05;5.18;;;2.95;;
26261;SDS011;13988;52.446;13.280;2024-02-14T00:50:32;3.92;;;3.05;;
26261;SDS011;13988;52.446;13.280;2024-02-14T00:52:58;9.02;;;2.78;;
26261;SDS011;13988;52.446;13.280;2024-02-14T00:55:25;5.40;;;3.53;;
26261;SDS011;13988;52.446;13.280;2024-02-14T00:57:50;5.32;;;2.78;;
26261;SDS011;13988;52.446;13.280;2024-02-14T01:00:16;5.88;;;3.17;;
26261;SDS011;13988;52.446;13.280;2024-02-14T01:02:42;5.88;;;2.83;;
26261;SDS011;13988;52.446;13.280;2024-02-14T01:05:08;4.00;;;3.05;;
26261;SDS011;13988;52.446;13.280;2024-02-14T01:07:34;13.48;;;3.72;;
26261;SDS011;13988;52.446;13.280;2024-02-14T01:10:00;5.47;;;3.40;;
26261;SDS011;13988;52.446;13.280;2024-02-14T01:12:26;6.47;;;2.97;;
26261;SDS011;13988;52.446;13.280;2024-02-14T01:14:51;5.50;;;3.70;;
26261;SDS011;13988;52.446;13.280;2024-02-14T01:17:17;4.85;;;3.63;;
26261;SDS011;13988;52.446;13.280;2024-02-14T01:19:43;2.92;;;2.40;;
26261;SDS011;13988;52.446;13.280;2024-02-14T01:22:08;7.80;;;3.30;;
26261;SDS011;13988;52.446;13.280;2024-02-14T01:24:34;6.75;;;3.35;;
26261;SDS011;13988;52.446;13.280;2024-02-14T01:27:00;4.47;;;2.80;;
26261;SDS011;13988;52.446;13.280;2024-02-14T01:29:25;5.30;;;3.70;;
26261;SDS011;13988;52.446;13.280;2024-02-14T01:31:58;6.15;;;3.42;;
26261;SDS011;13988;52.446;13.280;2024-02-14T01:34:24;5.50;;;3.22;;
26261;SDS011;13988;52.446;13.280;2024-02-14T01:36:49;8.35;;;3.42;;
26261;SDS011;13988;52.446;13.280;2024-02-14T01:39:15;4.55;;;3.20;;
26261;SDS011;13988;52.446;13.280;2024-02-14T01:41:46;4.72;;;3.10;;
26261;SDS011;13988;52.446;13.280;2024-02-14T01:44:15;5.15;;;2.80;;
26261;SDS011;13988;52.446;13.280;2024-02-14T01:46:42;5.85;;;3.58;;
26261;SDS011;13988;52.446;13.280;2024-02-14T01:49:11;6.03;;;3.13;;
26261;SDS011;13988;52.446;13.280;2024-02-14T01:51:38;7.40;;;3.63;;
26261;SDS011;13988;52.446;13.280;2024-02-14T01:54:07;7.70;;;2.88;;
26261;SDS011;13988;52.446;13.280;2024-02-14T01:56:33;9.68;;;3.10;;
26261;SDS011;13988;52.446;13.280;2024-02-14T01:58:59;5.38;;;3.47;;
26261;SDS011;13988;52.446;13.280;2024-02-14T02:01:25;4.18;;;2.90;;
26261;SDS011;13988;52.446;13.280;2024-02-14T02:03:51;5.18;;;2.35;;
26261;SDS011;13988;52.446;13.280;2024-02-14T02:06:18;6.88;;;3.88;;
26261;SDS011;13988;52.446;13.280;2024-02-14T02:08:44;7.47;;;3.25;;
26261;SDS011;13988;52.446;13.280;2024-02-14T02:11:10;3.80;;;3.00;;
26261;SDS011;13988;52.446;13.280;2024-02-14T02:13:36;11.82;;;3.33;;
26261;SDS011;13988;52.446;13.280;2024-02-14T02:16:04;8.65;;;4.20;;
26261;SDS011;13988;52.446;13.280;2024-02-14T02:18:31;4.78;;;3.10;;
26261;SDS011;13988;52.446;13.280;2024-02-14T02:20:57;6.57;;;3.15;;
26261;SDS011;13988;52.446;13.280;2024-02-14T02:23:23;11.38;;;3.30;;
26261;SDS011;13988;52.446;13.280;2024-02-14T02:25:49;7.97;;;2.97;;
26261;SDS011;13988;52.446;13.280;2024-02-14T02:28:15;5.07;;;3.40;;
26261;SDS011;13988;52.446;13.280;2024-02-14T02:30:41;5.05;;;3.33;;
26261;SDS011;13988;52.446;13.280;2024-02-14T02:33:07;5.25;;;2.70;;
26261;SDS011;13988;52.446;13.280;2024-02-14T02:35:33;5.22;;;3.03;;
26261;SDS011;13988;52.446;13.280;2024-02-14T02:38:00;4.88;;;2.95;;
26261;SDS011;13988;52.446;13.280;2024-02-14T02:40:26;6.07;;;3.40;;
26261;SDS011;13988;52.446;13.280;2024-02-14T02:42:54;5.40;;;2.95;;
26261;SDS011;13988;52.446;13.280;2024-02-14T02:45:20;5.32;;;3.42;;
26261;SDS011;13988;52.446;13.280;2024-02-14T02:47:46;5.60;;;3.25;;
26261;SDS011;13988;52.446;13.280;2024-02-14T02:50:12;6.47;;;3.30;;
26261;SDS011;13988;52.446;13.280;2024-02-14T02:52:38;5.05;;;3.50;;
26261;SDS011;13988;52.446;13.280;2024-02-14T02:55:05;7.00;;;3.40;;
26261;SDS011;13988;52.446;13.280;2024-02-14T02:57:31;4.53;;;2.78;;
26261;SDS011;13988;52.446;13.280;2024-02-14T02:59:58;5.50;;;3.13;;
26261;SDS011;13988;52.446;13.280;2024-02-14T03:02:24;4.68;;;3.20;;
26261;SDS011;13988;52.446;13.280;2024-02-14T03:04:50;3.22;;;2.92;;
26261;SDS011;13988;52.446;13.280;2024-02-14T03:07:17;7.75;;;2.88;;
26261;SDS011;13988;52.446;13.280;2024-02-14T03:09:44;6.28;;;3.35;;
26261;SDS011;13988;52.446;13.280;2024-02-14T03:12:10;3.50;;;2.63;;
26261;SDS011;13988;52.446;13.280;2024-02-14T03:14:35;4.07;;;2.92;;
26261;SDS011;13988;52.446;13.280;2024-02-14T03:17:01;4.57;;;3.22;;
26261;SDS011;13988;52.446;13.280;2024-02-14T03:19:28;6.15;;;3.00;;
26261;SDS011;13988;52.446;13.280;2024-02-14T03:21:55;4.05;;;2.90;;
26261;SDS011;13988;52.446;13.280;2024-02-14T03:24:20;4.07;;;2.80;;
26261;SDS011;13988;52.446;13.280;2024-02-14T03:26:46;4.68;;;2.78;;
26261;SDS011;13988;52.446;13.280;2024-02-14T03:29:12;5.35;;;3.10;;
26261;SDS011;13988;52.446;13.280;2024-02-14T03:31:38;3.67;;;2.90;;
26261;SDS011;13988;52.446;13.280;2024-02-14T03:34:04;2.90;;;2.60;;
26261;SDS011;13988;52.446;13.280;2024-02-14T03:36:30;4.35;;;2.75;;
26261;SDS011;13988;52.446;13.280;2024-02-14T03:38:57;6.53;;;2.80;;
26261;SDS011;13988;52.446;13.280;2024-02-14T03:41:23;4.10;;;3.00;;
26261;SDS011;13988;52.446;13.280;2024-02-14T03:43:49;9.20;;;3.15;;
26261;SDS011;13988;52.446;13.280;2024-02-14T03:46:17;7.97;;;3.33;;
26261;SDS011;13988;52.446;13.280;2024-02-14T03:48:46;4.60;;;2.95;;
26261;SDS011;13988;52.446;13.280;2024-02-14T03:51:12;4.50;;;3.13;;
26261;SDS011;13988;52.446;13.280;2024-02-14T03:53:38;3.95;;;3.08;;
26261;SDS011;13988;52.446;13.280;2024-02-14T03:56:04;5.38;;;3.35;;
26261;SDS011;13988;52.446;13.280;2024-02-14T03:58:32;6.28;;;3.28;;
26261;SDS011;13988;52.446;13.280;2024-02-14T04:01:02;3.70;;;2.75;;
26261;SDS011;13988;52.446;13.280;2024-02-14T04:03:28;5.03;;;2.90;;
26261;SDS011;13988;52.446;13.280;2024-02-14T04:05:54;8.43;;;3.15;;
26261;SDS011;13988;52.446;13.280;2024-02-14T04:08:19;3.55;;;2.85;;
26261;SDS011;13988;52.446;13.280;2024-02-14T04:10:45;3.55;;;2.90;;
26261;SDS011;13988;52.446;13.280;2024-02-14T04:13:11;4.38;;;2.65;;
26261;SDS011;13988;52.446;13.280;2024-02-14T04:15:37;7.47;;;2.70;;
26261;SDS011;13988;52.446;13.280;2024-02-14T04:18:02;3.35;;;3.05;;
26261;SDS011;13988;52.446;13.280;2024-02-14T04:20:31;6.38;;;3.30;;
26261;SDS011;13988;52.446;13.280;2024-02-14T04:22:56;5.43;;;3.17;;
26261;SDS011;13988;52.446;13.280;2024-02-14T04:25:23;4.68;;;3.33;;
26261;SDS011;13988;52.446;13.280;2024-02-14T04:27:49;5.78;;;3.65;;
26261;SDS011;13988;52.446;13.280;2024-02-14T04:30:14;8.93;;;3.25;;
26261;SDS011;13988;52.446;13.280;2024-02-14T04:32:40;6.72;;;3.78;;
26261;SDS011;13988;52.446;13.280;2024-02-14T04:35:08;4.78;;;3.45;;
26261;SDS011;13988;52.446;13.280;2024-02-14T04:37:34;4.72;;;3.40;;
26261;SDS011;13988;52.446;13.280;2024-02-14T04:40:00;6.78;;;3.90;;
26261;SDS011;13988;52.446;13.280;2024-02-14T04:42:26;3.97;;;2.78;;
26261;SDS011;13988;52.446;13.280;2024-02-14T04:44:51;4.30;;;2.85;;
26261;SDS011;13988;52.446;13.280;2024-02-14T04:47:17;11.75;;;3.50;;
26261;SDS011;13988;52.446;13.280;2024-02-14T04:49:43;6.20;;;3.22;;
26261;SDS011;13988;52.446;13.280;2024-02-14T04:52:08;6.13;;;3.38;;
26261;SDS011;13988;52.446;13.280;2024-02-14T04:54:34;7.82;;;4.05;;
26261;SDS011;13988;52.446;13.280;2024-02-14T04:56:59;6.47;;;3.03;;
26261;SDS011;13988;52.446;13.280;2024-02-14T04:59:25;3.10;;;2.78;;
26261;SDS011;13988;52.446;13.280;2024-02-14T05:01:51;5.35;;;3.35;;
26261;SDS011;13988;52.446;13.280;2024-02-14T05:04:18;3.72;;;2.90;;
26261;SDS011;13988;52.446;13.280;2024-02-14T05:06:44;5.90;;;2.70;;
26261;SDS011;13988;52.446;13.280;2024-02-14T05:09:09;5.55;;;3.45;;
26261;SDS011;13988;52.446;13.280;2024-02-14T05:11:36;4.25;;;3.05;;
26261;SDS011;13988;52.446;13.280;2024-02-14T05:14:02;6.20;;;3.72;;
26261;SDS011;13988;52.446;13.280;2024-02-14T05:16:28;7.78;;;4.80;;
26261;SDS011;13988;52.446;13.280;2024-02-14T05:18:54;7.13;;;4.82;;
26261;SDS011;13988;52.446;13.280;2024-02-14T05:21:20;5.30;;;3.63;;
26261;SDS011;13988;52.446;13.280;2024-02-14T05:23:46;9.50;;;3.65;;
26261;SDS011;13988;52.446;13.280;2024-02-14T05:26:13;4.35;;;2.88;;
26261;SDS011;13988;52.446;13.280;2024-02-14T05:28:38;9.65;;;3.67;;
26261;SDS011;13988;52.446;13.280;2024-02-14T05:31:04;5.22;;;3.70;;
26261;SDS011;13988;52.446;13.280;2024-02-14T05:33:30;5.65;;;3.60;;
26261;SDS011;13988;52.446;13.280;2024-02-14T05:35:56;5.93;;;3.67;;
26261;SDS011;13988;52.446;13.280;2024-02-14T05:38:21;4.47;;;2.92;;
26261;SDS011;13988;52.446;13.280;2024-02-14T05:40:50;6.55;;;3.15;;
26261;SDS011;13988;52.446;13.280;2024-02-14T05:43:16;5.18;;;3.05;;
26261;SDS011;13988;52.446;13.280;2024-02-14T05:45:43;6.43;;;3.17;;
26261;SDS011;13988;52.446;13.280;2024-02-14T05:48:08;6.80;;;3.38;;
26261;SDS011;13988;52.446;13.280;2024-02-14T05:50:34;5.00;;;3.20;;
26261;SDS011;13988;52.446;13.280;2024-02-14T05:53:00;7.05;;;3.42;;
26261;SDS011;13988;52.446;13.280;2024-02-14T05:55:26;5.95;;;3.10;;
26261;SDS011;13988;52.446;13.280;2024-02-14T05:57:52;4.55;;;3.33;;
26261;SDS011;13988;52.446;13.280;2024-02-14T06:00:18;4.00;;;3.33;;
26261;SDS011;13988;52.446;13.280;2024-02-14T06:02:45;5.72;;;3.20;;
26261;SDS011;13988;52.446;13.280;2024-02-14T06:05:14;3.33;;;2.67;;
26261;SDS011;13988;52.446;13.280;2024-02-14T06:07:40;5.68;;;3.28;;
26261;SDS011;13988;52.446;13.280;2024-02-14T06:10:07;6.85;;;2.75;;
26261;SDS011;13988;52.446;13.280;2024-02-14T06:12:33;8.77;;;3.35;;
26261;SDS011;13988;52.446;13.280;2024-02-14T06:14:59;6.20;;;3.38;;
26261;SDS011;13988;52.446;13.280;2024-02-14T06:17:25;6.53;;;3.85;;
26261;SDS011;13988;52.446;13.280;2024-02-14T06:19:54;5.10;;;3.72;;
26261;SDS011;13988;52.446;13.280;2024-02-14T06:22:20;9.40;;;3.97;;
26261;SDS011;13988;52.446;13.280;2024-02-14T06:24:46;5.13;;;3.40;;
26261;SDS011;13988;52.446;13.280;2024-02-14T06:27:15;4.65;;;2.95;;
26261;SDS011;13988;52.446;13.280;2024-02-14T06:29:41;3.35;;;2.72;;
26261;SDS011;13988;52.446;13.280;2024-02-14T06:32:07;3.08;;;2.55;;
26261;SDS011;13988;52.446;13.280;2024-02-14T06:34:33;7.00;;;3.15;;
26261;SDS011;13988;52.446;13.280;2024-02-14T06:36:59;5.82;;;2.85;;
26261;SDS011;13988;52.446;13.280;2024-02-14T06:39:24;4.10;;;2.72;;
26261;SDS011;13988;52.446;13.280;2024-02-14T06:41:50;3.78;;;2.50;;
26261;SDS011;13988;52.446;13.280;2024-02-14T06:44:15;5.57;;;2.92;;
26261;SDS011;13988;52.446;13.280;2024-02-14T06:46:41;6.93;;;3.05;;
26261;SDS011;13988;52.446;13.280;2024-02-14T06:49:07;5.65;;;2.85;;
26261;SDS011;13988;52.446;13.280;2024-02-14T06:51:34;10.75;;;4.00;;
26261;SDS011;13988;52.446;13.280;2024-02-14T06:53:59;3.75;;;2.83;;
26261;SDS011;13988;52.446;13.280;2024-02-14T06:56:25;6.70;;;3.15;;
26261;SDS011;13988;52.446;13.280;2024-02-14T06:58:50;9.07;;;2.92;;
26261;SDS011;13988;52.446;13.280;2024-02-14T07:01:19;5.93;;;2.75;;
26261;SDS011;13988;52.446;13.280;2024-02-14T07:03:48;3.88;;;2.65;;
26261;SDS011;13988;52.446;13.280;2024-02-14T07:06:14;4.75;;;3.28;;
26261;SDS011;13988;52.446;13.280;2024-02-14T07:08:40;4.55;;;2.63;;
26261;SDS011;13988;52.446;13.280;2024-02-14T07:11:06;4.45;;;3.35;;
26261;SDS011;13988;52.446;13.280;2024-02-14T07:13:32;7.13;;;3.33;;
26261;SDS011;13988;52.446;13.280;2024-02-14T07:15:57;8.30;;;2.60;;
26261;SDS011;13988;52.446;13.280;2024-02-14T07:18:23;4.90;;;2.83;;
26261;SDS011;13988;52.446;13.280;2024-02-14T07:20:48;12.15;;;2.53;;
26261;SDS011;13988;52.446;13.280;2024-02-14T07:23:14;5.53;;;3.30;;
26261;SDS011;13988;52.446;13.280;2024-02-14T07:25:40;4.53;;;2.70;;
26261;SDS011;13988;52.446;13.280;2024-02-14T07:28:05;4.72;;;3.28;;
26261;SDS011;13988;52.446;13.280;2024-02-14T07:30:31;5.28;;;2.95;;
26261;SDS011;13988;52.446;13.280;2024-02-14T07:32:57;3.42;;;2.38;;
26261;SDS011;13988;52.446;13.280;2024-02-14T07:35:22;7.35;;;3.10;;
26261;SDS011;13988;52.446;13.280;2024-02-14T07:37:48;5.45;;;3.03;;
26261;SDS011;13988;52.446;13.280;2024-02-14T07:40:14;3.85;;;3.15;;
26261;SDS011;13988;52.446;13.280;2024-02-14T07:42:40;7.00;;;2.67;;
26261;SDS011;13988;52.446;13.280;2024-02-14T07:45:05;4.53;;;2.90;;
26261;SDS011;13988;52.446;13.280;2024-02-14T07:47:31;10.05;;;2.63;;
26261;SDS011;13988;52.446;13.280;2024-02-14T07:49:57;3.88;;;2.25;;
26261;SDS011;13988;52.446;13.280;2024-02-14T07:52:23;3.35;;;2.40;;
26261;SDS011;13988;52.446;13.280;2024-02-14T07:54:55;2.85;;;2.17;;
26261;SDS011;13988;52.446;13.280;2024-02-14T07:57:24;4.53;;;3.20;;
26261;SDS011;13988;52.446;13.280;2024-02-14T07:59:50;4.60;;;2.35;;
26261;SDS011;13988;52.446;13.280;2024-02-14T08:02:17;4.32;;;2.78;;
26261;SDS011;13988;52.446;13.280;2024-02-14T08:04:43;4.22;;;2.20;;
26261;SDS011;13988;52.446;13.280;2024-02-14T08:07:09;3.85;;;2.85;;
26261;SDS011;13988;52.446;13.280;2024-02-14T08:09:35;3.72;;;2.38;;
26261;SDS011;13988;52.446;13.280;2024-02-14T08:12:00;5.13;;;2.75;;
26261;SDS011;13988;52.446;13.280;2024-02-14T08:14:26;3.78;;;2.35;;
26261;SDS011;13988;52.446;13.280;2024-02-14T08:16:52;7.70;;;2.10;;
26261;SDS011;13988;52.446;13.280;2024-02-14T08:19:18;4.53;;;2.45;;
26261;SDS011;13988;52.446;13.280;2024-02-14T08:21:44;5.85;;;2.47;;
26261;SDS011;13988;52.446;13.280;2024-02-14T08:24:10;3.30;;;1.88;;
26261;SDS011;13988;52.446;13.280;2024-02-14T08:26:35;3.55;;;2.55;;
26261;SDS011;13988;52.446;13.280;2024-02-14T08:29:01;8.45;;;3.35;;
26261;SDS011;13988;52.446;13.280;2024-02-14T08:31:27;6.70;;;2.45;;
26261;SDS011;13988;52.446;13.280;2024-02-14T08:33:52;3.28;;;1.65;;
26261;SDS011;13988;52.446;13.280;2024-02-14T08:36:19;3.55;;;1.45;;
26261;SDS011;13988;52.446;13.280;2024-02-14T08:38:44;3.97;;;2.63;;
26261;SDS011;13988;52.446;13.280;2024-02-14T08:41:10;4.60;;;2.35;;
26261;SDS011;13988;52.446;13.280;2024-02-14T08:43:37;3.55;;;2.03;;
26261;SDS011;13988;52.446;13.280;2024-02-14T08:46:02;3.35;;;2.38;;
26261;SDS011;13988;52.446;13.280;2024-02-14T08:48:28;2.72;;;2.00;;
26261;SDS011;13988;52.446;13.280;2024-02-14T08:50:57;5.22;;;2.15;;
26261;SDS011;13988;52.446;13.280;2024-02-14T08:53:23;5.70;;;2.50;;
26261;SDS011;13988;52.446;13.280;2024-02-14T08:55:49;3.42;;;1.70;;
26261;SDS011;13988;52.446;13.280;2024-02-14T08:58:14;3.30;;;1.90;;
26261;SDS011;13988;52.446;13.280;2024-02-14T09:00:40;3.72;;;1.65;;
26261;SDS011;13988;52.446;13.280;2024-02-14T09:03:06;3.05;;;1.63;;
26261;SDS011;13988;52.446;13.280;2024-02-14T09:05:31;6.13;;;1.77;;
26261;SDS011;13988;52.446;13.280;2024-02-14T09:07:57;3.55;;;1.50;;
26261;SDS011;13988;52.446;13.280;2024-02-14T09:10:23;2.53;;;1.50;;
26261;SDS011;13988;52.446;13.280;2024-02-14T09:12:48;4.63;;;1.40;;
26261;SDS011;13988;52.446;13.280;2024-02-14T09:15:14;2.67;;;1.70;;
26261;SDS011;13988;52.446;13.280;2024-02-14T09:17:40;6.10;;;1.85;;
26261;SDS011;13988;52.446;13.280;2024-02-14T09:20:07;2.80;;;1.65;;
26261;SDS011;13988;52.446;13.280;2024-02-14T09:22:37;2.08;;;1.75;;
26261;SDS011;13988;52.446;13.280;2024-02-14T09:25:03;2.95;;;2.35;;
26261;SDS011;13988;52.446;13.280;2024-02-14T09:27:29;2.35;;;1.60;;
26261;SDS011;13988;52.446;13.280;2024-02-14T09:29:55;3.83;;;1.90;;
26261;SDS011;13988;52.446;13.280;2024-02-14T09:32:21;2.83;;;1.60;;
26261;SDS011;13988;52.446;13.280;2024-02-14T09:34:47;2.67;;;2.05;;
26261;SDS011;13988;52.446;13.280;2024-02-14T09:37:12;4.15;;;2.03;;
26261;SDS011;13988;52.446;13.280;2024-02-14T09:39:38;6.70;;;1.75;;
26261;SDS011;13988;52.446;13.280;2024-02-14T09:42:08;3.13;;;1.67;;
26261;SDS011;13988;52.446;13.280;2024-02-14T09:44:36;1.25;;;1.15;;
26261;SDS011;13988;52.446;13.280;2024-02-14T09:47:04;3.72;;;1.60;;
26261;SDS011;13988;52.446;13.280;2024-02-14T09:49:31;4.07;;;1.40;;
26261;SDS011;13988;52.446;13.280;2024-02-14T09:51:57;4.82;;;1.77;;
26261;SDS011;13988;52.446;13.280;2024-02-14T09:54:25;3.90;;;1.80;;
26261;SDS011;13988;52.446;13.280;2024-02-14T09:56:52;4.65;;;1.58;;
26261;SDS011;13988;52.446;13.280;2024-02-14T09:59:19;2.90;;;1.83;;
26261;SDS011;13988;52.446;13.280;2024-02-14T10:01:46;1.85;;;1.48;;
26261;SDS011;13988;52.446;13.280;2024-02-14T10:04:13;2.00;;;1.80;;
26261;SDS011;13988;52.446;13.280;2024-02-14T10:06:38;3.10;;;1.95;;
26261;SDS011;13988;52.446;13.280;2024-02-14T10:09:04;4.93;;;2.38;;
26261;SDS011;13988;52.446;13.280;2024-02-14T10:11:33;5.57;;;1.67;;
26261;SDS011;13988;52.446;13.280;2024-02-14T10:14:00;2.40;;;1.75;;
26261;SDS011;13988;52.446;13.280;2024-02-14T10:16:29;2.08;;;1.42;;
26261;SDS011;13988;52.446;13.280;2024-02-14T10:18:54;2.78;;;1.92;;
26261;SDS011;13988;52.446;13.280;2024-02-14T10:21:21;3.72;;;2.15;;
26261;SDS011;13988;52.446;13.280;2024-02-14T10:23:47;4.07;;;1.50;;
26261;SDS011;13988;52.446;13.280;2024-02-14T10:26:17;2.72;;;1.52;;
26261;SDS011;13988;52.446;13.280;2024-02-14T10:28:43;2.47;;;1.92;;
26261;SDS011;13988;52.446;13.280;2024-02-14T10:31:09;5.43;;;1.80;;
26261;SDS011;13988;52.446;13.280;2024-02-14T10:33:35;2.40;;;1.70;;
26261;SDS011;13988;52.446;13.280;2024-02-14T10:36:01;2.80;;;1.85;;
26261;SDS011;13988;52.446;13.280;2024-02-14T10:38:29;5.55;;;2.10;;
26261;SDS011;13988;52.446;13.280;2024-02-14T10:40:59;4.07;;;2.00;;
26261;SDS011;13988;52.446;13.280;2024-02-14T10:43:26;6.45;;;1.75;;
26261;SDS011;13988;52.446;13.280;2024-02-14T10:45:55;5.13;;;2.35;;
26261;SDS011;13988;52.446;13.280;2024-02-14T10:48:24;2.53;;;1.77;;
26261;SDS011;13988;52.446;13.280;2024-02-14T10:50:50;3.42;;;1.42;;
26261;SDS011;13988;52.446;13.280;2024-02-14T10:53:18;2.53;;;2.33;;
26261;SDS011;13988;52.446;13.280;2024-02-14T10:55:45;2.13;;;1.58;;
26261;SDS011;13988;52.446;13.280;2024-02-14T10:58:13;2.20;;;1.67;;
26261;SDS011;13988;52.446;13.280;2024-02-14T11:00:41;2.10;;;1.70;;
26261;SDS011;13988;52.446;13.280;2024-02-14T11:03:07;4.32;;;1.55;;
26261;SDS011;13988;52.446;13.280;2024-02-14T11:05:47;3.38;;;1.60;;
26261;SDS011;13988;52.446;13.280;2024-02-14T11:08:23;2.63;;;1.80;;
26261;SDS011;13988;52.446;13.280;2024-02-14T11:10:54;3.17;;;1.38;;
26261;SDS011;13988;52.446;13.280;2024-02-14T11:13:26;4.15;;;2.00;;
26261;SDS011;13988;52.446;13.280;2024-02-14T11:15:53;3.70;;;2.20;;
26261;SDS011;13988;52.446;13.280;2024-02-14T11:18:25;2.63;;;1.73;;
26261;SDS011;13988;52.446;13.280;2024-02-14T11:20:51;2.47;;;1.73;;
26261;SDS011;13988;52.446;13.280;2024-02-14T11:23:21;4.35;;;1.40;;
26261;SDS011;13988;52.446;13.280;2024-02-14T11:25:47;2.25;;;1.85;;
26261;SDS011;13988;52.446;13.280;2024-02-14T11:28:13;1.70;;;1.55;;
26261;SDS011;13988;52.446;13.280;2024-02-14T11:30:46;2.78;;;1.98;;
26261;SDS011;13988;52.446;13.280;2024-02-14T11:33:13;2.70;;;2.05;;
26261;SDS011;13988;52.446;13.280;2024-02-14T11:35:43;3.88;;;1.65;;
26261;SDS011;13988;52.446;13.280;2024-02-14T11:38:11;4.95;;;1.90;;
26261;SDS011;13988;52.446;13.280;2024-02-14T11:40:38;1.88;;;1.45;;
26261;SDS011;13988;52.446;13.280;2024-02-14T11:43:04;1.98;;;1.60;;
26261;SDS011;13988;52.446;13.280;2024-02-14T11:45:34;2.65;;;1.60;;
26261;SDS011;13988;52.446;13.280;2024-02-14T11:48:04;4.30;;;2.00;;
26261;SDS011;13988;52.446;13.280;2024-02-14T11:50:30;2.90;;;2.00;;
26261;SDS011;13988;52.446;13.280;2024-02-14T11:52:56;5.60;;;1.80;;
26261;SDS011;13988;52.446;13.280;2024-02-14T11:55:29;2.53;;;2.00;;
26261;SDS011;13988;52.446;13.280;2024-02-14T11:57:56;2.85;;;1.85;;
26261;SDS011;13988;52.446;13.280;2024-02-14T12:00:22;2.70;;;2.25;;
26261;SDS011;13988;52.446;13.280;2024-02-14T12:02:48;5.07;;;1.55;;
26261;SDS011;13988;52.446;13.280;2024-02-14T12:05:15;2.45;;;1.77;;
26261;SDS011;13988;52.446;13.280;2024-02-14T12:07:41;1.63;;;1.40;;
26261;SDS011;13988;52.446;13.280;2024-02-14T12:10:07;4.88;;;4.15;;
26261;SDS011;13988;52.446;13.280;2024-02-14T12:12:34;2.90;;;1.75;;
26261;SDS011;13988;52.446;13.280;2024-02-14T12:15:01;4.35;;;2.55;;
26261;SDS011;13988;52.446;13.280;2024-02-14T12:17:27;4.05;;;2.00;;
26261;SDS011;13988;52.446;13.280;2024-02-14T12:20:04;1.60;;;1.50;;
26261;SDS011;13988;52.446;13.280;2024-02-14T12:22:34;3.65;;;1.88;;
26261;SDS011;13988;52.446;13.280;2024-02-14T12:24:59;4.53;;;2.20;;
26261;SDS011;13988;52.446;13.280;2024-02-14T12:27:26;3.15;;;2.55;;
26261;SDS011;13988;52.446;13.280;2024-02-14T12:29:52;4.25;;;1.50;;
26261;SDS011;13988;52.446;13.280;2024-02-14T12:32:17;4.78;;;2.08;;
26261;SDS011;13988;52.446;13.280;2024-02-14T12:34:44;2.50;;;2.20;;
26261;SDS011;13988;52.446;13.280;2024-02-14T12:37:10;3.90;;;2.38;;
26261;SDS011;13988;52.446;13.280;2024-02-14T12:39:36;2.80;;;2.17;;
26261;SDS011;13988;52.446;13.280;2024-02-14T12:42:03;4.30;;;2.13;;
26261;SDS011;13988;52.446;13.280;2024-02-14T12:44:29;5.82;;;2.45;;
26261;SDS011;13988;52.446;13.280;2024-02-14T12:46:55;2.78;;;2.28;;
26261;SDS011;13988;52.446;13.280;2024-02-14T12:49:21;2.50;;;2.00;;
26261;SDS011;13988;52.446;13.280;2024-02-14T12:51:47;2.33;;;2.10;;
26261;SDS011;13988;52.446;13.280;2024-02-14T12:54:12;3.38;;;2.10;;
26261;SDS011;13988;52.446;13.280;2024-02-14T12:56:40;3.10;;;2.10;;
26261;SDS011;13988;52.446;13.280;2024-02-14T12:59:06;2.53;;;2.17;;
26261;SDS011;13988;52.446;13.280;2024-02-14T13:01:32;7.40;;;2.30;;
26261;SDS011;13988;52.446;13.280;2024-02-14T13:03:58;4.78;;;2.65;;
26261;SDS011;13988;52.446;13.280;2024-02-14T13:06:24;5.43;;;2.78;;
26261;SDS011;13988;52.446;13.280;2024-02-14T13:08:51;3.33;;;1.80;;
26261;SDS011;13988;52.446;13.280;2024-02-14T13:11:16;2.55;;;2.17;;
26261;SDS011;13988;52.446;13.280;2024-02-14T13:13:43;2.78;;;2.45;;
26261;SDS011;13988;52.446;13.280;2024-02-14T13:16:09;2.17;;;1.80;;
26261;SDS011;13988;52.446;13.280;2024-02-14T13:18:35;2.25;;;1.45;;
26261;SDS011;13988;52.446;13.280;2024-02-14T13:21:01;3.30;;;2.10;;
26261;SDS011;13988;52.446;13.280;2024-02-14T13:23:27;2.47;;;2.17;;
26261;SDS011;13988;52.446;13.280;2024-02-14T13:25:53;2.67;;;1.65;;
26261;SDS011;13988;52.446;13.280;2024-02-14T13:28:18;2.60;;;1.90;;
26261;SDS011;13988;52.446;13.280;2024-02-14T13:30:44;4.88;;;2.25;;
26261;SDS011;13988;52.446;13.280;2024-02-14T13:33:12;2.58;;;2.17;;
26261;SDS011;13988;52.446;13.280;2024-02-14T13:35:41;2.85;;;1.98;;
26261;SDS011;13988;52.446;13.280;2024-02-14T13:38:06;2.42;;;1.75;;
26261;SDS011;13988;52.446;13.280;2024-02-14T13:40:34;2.13;;;1.92;;
26261;SDS011;13988;52.446;13.280;2024-02-14T13:43:00;1.90;;;1.77;;
26261;SDS011;13988;52.446;13.280;2024-02-14T13:45:26;2.80;;;2.50;;
26261;SDS011;13988;52.446;13.280;2024-02-14T13:48:02;3.55;;;2.17;;
26261;SDS011;13988;52.446;13.280;2024-02-14T13:52:58;3.35;;;2.03;;
26261;SDS011;13988;52.446;13.280;2024-02-14T13:55:23;3.67;;;2.03;;
26261;SDS011;13988;52.446;13.280;2024-02-14T13:57:50;2.30;;;1.75;;
26261;SDS011;13988;52.446;13.280;2024-02-14T14:00:16;5.75;;;2.65;;
26261;SDS011;13988;52.446;13.280;2024-02-14T14:02:41;3.47;;;2.10;;
26261;SDS011;13988;52.446;13.280;2024-02-14T14:05:08;4.45;;;3.22;;
26261;SDS011;13988;52.446;13.280;2024-02-14T14:07:43;8.65;;;2.10;;
26261;SDS011;13988;52.446;13.280;2024-02-14T14:10:09;2.67;;;1.77;;
26261;SDS011;13988;52.446;13.280;2024-02-14T14:12:35;2.58;;;2.33;;
26261;SDS011;13988;52.446;13.280;2024-02-14T14:15:01;3.30;;;3.00;;
26261;SDS011;13988;52.446;13.280;2024-02-14T14:17:27;3.72;;;2.08;;
26261;SDS011;13988;52.446;13.280;2024-02-14T14:19:53;3.50;;;2.10;;
26261;SDS011;13988;52.446;13.280;2024-02-14T14:22:19;3.50;;;2.13;;
26261;SDS011;13988;52.446;13.280;2024-02-14T14:24:46;3.42;;;2.30;;
26261;SDS011;13988;52.446;13.280;2024-02-14T14:27:12;4.80;;;3.20;;
26261;SDS011;13988;52.446;13.280;2024-02-14T14:29:42;4.55;;;2.60;;
26261;SDS011;13988;52.446;13.280;2024-02-14T14:32:08;2.55;;;1.92;;